Warda, Texas
Current Conditions -  °F | °C
As of 10:35 AM on Wednesday 26 Nov 2014 (Local Time) from KGYB Reporting Station
Clear Clear  
Wind Chill: 64°   Ceiling: Unl
Heat Index: 64°   Visibility: 10mi
Dew Point: 34°   Wind: 12mph
Humidity: 33%   Direction: 230°SW
Pressure: 30.26"   Gusts: 18mph
Location:  30.06°N, 96.91°W
Report Text: KGYB 261635Z AUTO 23010G16KT 10SM CLR 18/01 A3026 RMK AO2 T01750011
Loading
Personal Weather Stations






























Interactive Weather Map New forecast layout! Learn more

10-Day Weather Forecast

Advertisements
Track Severe Weather on mobile